sensor_id;sensor_type;location;lat;lon;timestamp;temperature;humidity
14670;DHT22;7423;48.722;9.350;2024-01-16T00:01:42;4.30;99.90
14670;DHT22;7423;48.722;9.350;2024-01-16T00:04:10;4.30;99.90
14670;DHT22;7423;48.722;9.350;2024-01-16T00:06:41;4.20;99.90
14670;DHT22;7423;48.722;9.350;2024-01-16T00:09:12;4.20;99.90
14670;DHT22;7423;48.722;9.350;2024-01-16T00:11:42;4.10;99.90
14670;DHT22;7423;48.722;9.350;2024-01-16T00:14:10;4.10;99.90
14670;DHT22;7423;48.722;9.350;2024-01-16T00:16:44;4.00;99.90
14670;DHT22;7423;48.722;9.350;2024-01-16T00:19:12;4.10;99.90
14670;DHT22;7423;48.722;9.350;2024-01-16T00:21:40;4.00;99.90
14670;DHT22;7423;48.722;9.350;2024-01-16T00:24:08;4.00;99.90
14670;DHT22;7423;48.722;9.350;2024-01-16T00:26:35;4.00;99.90
14670;DHT22;7423;48.722;9.350;2024-01-16T00:29:02;4.00;99.90
14670;DHT22;7423;48.722;9.350;2024-01-16T00:31:29;3.90;99.90
14670;DHT22;7423;48.722;9.350;2024-01-16T00:33:57;3.90;99.90
14670;DHT22;7423;48.722;9.350;2024-01-16T00:36:24;3.80;99.90
14670;DHT22;7423;48.722;9.350;2024-01-16T00:38:51;3.90;99.90
14670;DHT22;7423;48.722;9.350;2024-01-16T00:41:19;3.90;99.90
14670;DHT22;7423;48.722;9.350;2024-01-16T00:43:46;3.90;99.90
14670;DHT22;7423;48.722;9.350;2024-01-16T00:46:13;3.90;99.90
14670;DHT22;7423;48.722;9.350;2024-01-16T00:48:40;3.80;99.90
14670;DHT22;7423;48.722;9.350;2024-01-16T00:51:07;3.80;99.90
14670;DHT22;7423;48.722;9.350;2024-01-16T00:53:42;3.90;99.90
14670;DHT22;7423;48.722;9.350;2024-01-16T00:56:11;4.00;99.90
14670;DHT22;7423;48.722;9.350;2024-01-16T00:58:39;3.90;99.90
14670;DHT22;7423;48.722;9.350;2024-01-16T01:01:06;3.90;99.90
14670;DHT22;7423;48.722;9.350;2024-01-16T01:03:33;3.90;99.90
14670;DHT22;7423;48.722;9.350;2024-01-16T01:06:00;3.90;99.90
14670;DHT22;7423;48.722;9.350;2024-01-16T01:08:28;4.00;99.90
14670;DHT22;7423;48.722;9.350;2024-01-16T01:10:55;4.00;99.90
14670;DHT22;7423;48.722;9.350;2024-01-16T01:13:22;4.10;99.90
14670;DHT22;7423;48.722;9.350;2024-01-16T01:15:49;4.10;99.90
14670;DHT22;7423;48.722;9.350;2024-01-16T01:18:16;4.10;99.90
14670;DHT22;7423;48.722;9.350;2024-01-16T01:20:43;4.30;99.90
14670;DHT22;7423;48.722;9.350;2024-01-16T01:23:10;4.40;99.90
14670;DHT22;7423;48.722;9.350;2024-01-16T01:25:37;4.40;99.90
14670;DHT22;7423;48.722;9.350;2024-01-16T01:28:05;4.40;99.90
14670;DHT22;7423;48.722;9.350;2024-01-16T01:30:32;4.20;99.90
14670;DHT22;7423;48.722;9.350;2024-01-16T01:32:59;4.10;99.90
14670;DHT22;7423;48.722;9.350;2024-01-16T01:35:26;4.30;99.90
14670;DHT22;7423;48.722;9.350;2024-01-16T01:37:54;4.20;99.90
14670;DHT22;7423;48.722;9.350;2024-01-16T01:40:21;4.30;99.90
14670;DHT22;7423;48.722;9.350;2024-01-16T01:42:48;4.30;99.90
14670;DHT22;7423;48.722;9.350;2024-01-16T01:45:15;4.10;99.90
14670;DHT22;7423;48.722;9.350;2024-01-16T01:47:42;4.10;99.90
14670;DHT22;7423;48.722;9.350;2024-01-16T01:50:10;4.20;99.90
14670;DHT22;7423;48.722;9.350;2024-01-16T01:52:43;4.20;99.90
14670;DHT22;7423;48.722;9.350;2024-01-16T01:55:12;4.10;99.90
14670;DHT22;7423;48.722;9.350;2024-01-16T01:57:40;4.20;99.90
14670;DHT22;7423;48.722;9.350;2024-01-16T02:00:10;5.20;99.90
14670;DHT22;7423;48.722;9.350;2024-01-16T02:02:38;4.20;99.90
14670;DHT22;7423;48.722;9.350;2024-01-16T02:05:07;4.30;99.90
14670;DHT22;7423;48.722;9.350;2024-01-16T02:07:34;4.40;99.90
14670;DHT22;7423;48.722;9.350;2024-01-16T02:10:02;4.30;99.90
14670;DHT22;7423;48.722;9.350;2024-01-16T02:12:31;4.30;99.90
14670;DHT22;7423;48.722;9.350;2024-01-16T02:14:58;4.20;99.90
14670;DHT22;7423;48.722;9.350;2024-01-16T02:17:25;4.20;99.90
14670;DHT22;7423;48.722;9.350;2024-01-16T02:19:52;4.20;99.90
14670;DHT22;7423;48.722;9.350;2024-01-16T02:22:20;4.20;99.90
14670;DHT22;7423;48.722;9.350;2024-01-16T02:24:50;4.20;99.90
14670;DHT22;7423;48.722;9.350;2024-01-16T02:27:17;4.20;99.90
14670;DHT22;7423;48.722;9.350;2024-01-16T02:29:44;4.10;99.90
14670;DHT22;7423;48.722;9.350;2024-01-16T02:32:14;4.10;99.90
14670;DHT22;7423;48.722;9.350;2024-01-16T02:34:42;4.10;99.90
14670;DHT22;7423;48.722;9.350;2024-01-16T02:37:10;4.00;99.90
14670;DHT22;7423;48.722;9.350;2024-01-16T02:39:36;5.20;99.90
14670;DHT22;7423;48.722;9.350;2024-01-16T02:42:03;3.90;99.90
14670;DHT22;7423;48.722;9.350;2024-01-16T02:46:58;4.10;99.90
14670;DHT22;7423;48.722;9.350;2024-01-16T02:49:25;4.10;99.90
14670;DHT22;7423;48.722;9.350;2024-01-16T02:51:53;4.20;99.90
14670;DHT22;7423;48.722;9.350;2024-01-16T02:54:22;4.30;99.90
14670;DHT22;7423;48.722;9.350;2024-01-16T02:56:49;4.10;99.90
14670;DHT22;7423;48.722;9.350;2024-01-16T02:59:16;4.00;99.90
14670;DHT22;7423;48.722;9.350;2024-01-16T03:01:43;3.90;99.90
14670;DHT22;7423;48.722;9.350;2024-01-16T03:04:10;3.90;99.90
14670;DHT22;7423;48.722;9.350;2024-01-16T03:06:38;3.90;99.90
14670;DHT22;7423;48.722;9.350;2024-01-16T03:09:05;3.80;99.90
14670;DHT22;7423;48.722;9.350;2024-01-16T03:11:33;3.80;99.90
14670;DHT22;7423;48.722;9.350;2024-01-16T03:14:01;3.90;99.90
14670;DHT22;7423;48.722;9.350;2024-01-16T03:16:28;4.00;99.90
14670;DHT22;7423;48.722;9.350;2024-01-16T03:18:55;4.00;99.90
14670;DHT22;7423;48.722;9.350;2024-01-16T03:21:22;3.90;99.90
14670;DHT22;7423;48.722;9.350;2024-01-16T03:23:50;3.70;99.90
14670;DHT22;7423;48.722;9.350;2024-01-16T03:26:17;3.70;99.90
14670;DHT22;7423;48.722;9.350;2024-01-16T03:28:44;3.70;99.90
14670;DHT22;7423;48.722;9.350;2024-01-16T03:31:13;3.70;99.90
14670;DHT22;7423;48.722;9.350;2024-01-16T03:33:41;3.70;99.90
14670;DHT22;7423;48.722;9.350;2024-01-16T03:36:09;3.80;99.90
14670;DHT22;7423;48.722;9.350;2024-01-16T03:38:37;3.80;99.90
14670;DHT22;7423;48.722;9.350;2024-01-16T03:41:04;3.70;99.90
14670;DHT22;7423;48.722;9.350;2024-01-16T03:43:36;3.70;99.90
14670;DHT22;7423;48.722;9.350;2024-01-16T03:46:03;3.70;99.90
14670;DHT22;7423;48.722;9.350;2024-01-16T03:48:30;3.60;99.90
14670;DHT22;7423;48.722;9.350;2024-01-16T03:50:57;3.60;99.90
14670;DHT22;7423;48.722;9.350;2024-01-16T03:53:24;3.60;99.90
14670;DHT22;7423;48.722;9.350;2024-01-16T03:55:51;3.70;99.90
14670;DHT22;7423;48.722;9.350;2024-01-16T03:58:18;3.80;99.90
14670;DHT22;7423;48.722;9.350;2024-01-16T04:00:45;3.70;99.90
14670;DHT22;7423;48.722;9.350;2024-01-16T04:03:12;3.40;99.90
14670;DHT22;7423;48.722;9.350;2024-01-16T04:05:40;3.40;99.90
14670;DHT22;7423;48.722;9.350;2024-01-16T04:08:07;3.30;99.90
14670;DHT22;7423;48.722;9.350;2024-01-16T04:10:34;3.30;99.90
14670;DHT22;7423;48.722;9.350;2024-01-16T04:13:02;3.30;99.90
14670;DHT22;7423;48.722;9.350;2024-01-16T04:15:29;3.40;99.90
14670;DHT22;7423;48.722;9.350;2024-01-16T04:17:56;3.50;99.90
14670;DHT22;7423;48.722;9.350;2024-01-16T04:20:23;3.60;99.90
14670;DHT22;7423;48.722;9.350;2024-01-16T04:22:50;3.50;99.90
14670;DHT22;7423;48.722;9.350;2024-01-16T04:25:17;3.40;99.90
14670;DHT22;7423;48.722;9.350;2024-01-16T04:27:44;3.50;99.90
14670;DHT22;7423;48.722;9.350;2024-01-16T04:30:11;3.70;99.90
14670;DHT22;7423;48.722;9.350;2024-01-16T04:32:39;3.50;99.90
14670;DHT22;7423;48.722;9.350;2024-01-16T04:35:06;3.30;99.90
14670;DHT22;7423;48.722;9.350;2024-01-16T04:37:34;3.20;99.90
14670;DHT22;7423;48.722;9.350;2024-01-16T04:40:00;3.10;99.90
14670;DHT22;7423;48.722;9.350;2024-01-16T04:42:27;3.10;99.90
14670;DHT22;7423;48.722;9.350;2024-01-16T04:44:54;3.00;99.90
14670;DHT22;7423;48.722;9.350;2024-01-16T04:47:22;2.90;99.90
14670;DHT22;7423;48.722;9.350;2024-01-16T04:49:49;3.00;99.90
14670;DHT22;7423;48.722;9.350;2024-01-16T04:52:16;2.90;99.90
14670;DHT22;7423;48.722;9.350;2024-01-16T04:54:42;2.80;99.90
14670;DHT22;7423;48.722;9.350;2024-01-16T04:57:12;2.80;99.90
14670;DHT22;7423;48.722;9.350;2024-01-16T04:59:39;2.70;99.90
14670;DHT22;7423;48.722;9.350;2024-01-16T05:02:06;2.70;99.90
14670;DHT22;7423;48.722;9.350;2024-01-16T05:04:36;2.70;99.90
14670;DHT22;7423;48.722;9.350;2024-01-16T05:07:03;2.70;99.90
14670;DHT22;7423;48.722;9.350;2024-01-16T05:09:30;2.60;99.90
14670;DHT22;7423;48.722;9.350;2024-01-16T05:11:57;2.60;99.90
14670;DHT22;7423;48.722;9.350;2024-01-16T05:14:24;2.60;99.90
14670;DHT22;7423;48.722;9.350;2024-01-16T05:16:52;2.60;99.90
14670;DHT22;7423;48.722;9.350;2024-01-16T05:19:19;2.60;99.90
14670;DHT22;7423;48.722;9.350;2024-01-16T05:21:46;2.50;99.90
14670;DHT22;7423;48.722;9.350;2024-01-16T05:24:13;2.50;99.90
14670;DHT22;7423;48.722;9.350;2024-01-16T05:26:40;2.50;99.90
14670;DHT22;7423;48.722;9.350;2024-01-16T05:29:07;2.60;99.90
14670;DHT22;7423;48.722;9.350;2024-01-16T05:31:39;2.60;99.90
14670;DHT22;7423;48.722;9.350;2024-01-16T05:34:10;2.50;99.90
14670;DHT22;7423;48.722;9.350;2024-01-16T05:36:38;2.50;99.90
14670;DHT22;7423;48.722;9.350;2024-01-16T05:39:05;2.40;99.90
14670;DHT22;7423;48.722;9.350;2024-01-16T05:41:33;2.40;99.90
14670;DHT22;7423;48.722;9.350;2024-01-16T05:44:01;2.40;99.90
14670;DHT22;7423;48.722;9.350;2024-01-16T05:46:33;2.40;99.90
14670;DHT22;7423;48.722;9.350;2024-01-16T05:49:00;2.30;99.90
14670;DHT22;7423;48.722;9.350;2024-01-16T05:51:28;2.40;99.90
14670;DHT22;7423;48.722;9.350;2024-01-16T05:53:56;2.30;99.90
14670;DHT22;7423;48.722;9.350;2024-01-16T05:56:23;2.40;99.90
14670;DHT22;7423;48.722;9.350;2024-01-16T05:58:50;2.30;99.90
14670;DHT22;7423;48.722;9.350;2024-01-16T06:01:18;2.30;99.90
14670;DHT22;7423;48.722;9.350;2024-01-16T06:03:45;2.30;99.90
14670;DHT22;7423;48.722;9.350;2024-01-16T06:06:16;2.30;99.90
14670;DHT22;7423;48.722;9.350;2024-01-16T06:08:43;2.30;99.90
14670;DHT22;7423;48.722;9.350;2024-01-16T06:11:10;2.30;99.90
14670;DHT22;7423;48.722;9.350;2024-01-16T06:13:40;2.30;99.90
14670;DHT22;7423;48.722;9.350;2024-01-16T06:16:08;2.40;99.90
14670;DHT22;7423;48.722;9.350;2024-01-16T06:18:35;2.30;99.90
14670;DHT22;7423;48.722;9.350;2024-01-16T06:21:03;2.30;99.90
14670;DHT22;7423;48.722;9.350;2024-01-16T06:23:30;2.40;99.90
14670;DHT22;7423;48.722;9.350;2024-01-16T06:25:57;2.40;99.90
14670;DHT22;7423;48.722;9.350;2024-01-16T06:28:24;2.30;99.90
14670;DHT22;7423;48.722;9.350;2024-01-16T06:30:51;2.30;99.90
14670;DHT22;7423;48.722;9.350;2024-01-16T06:33:18;2.30;99.90
14670;DHT22;7423;48.722;9.350;2024-01-16T06:35:45;2.30;99.90
14670;DHT22;7423;48.722;9.350;2024-01-16T06:38:12;2.20;99.90
14670;DHT22;7423;48.722;9.350;2024-01-16T06:40:39;2.20;99.90
14670;DHT22;7423;48.722;9.350;2024-01-16T06:43:06;2.20;99.90
14670;DHT22;7423;48.722;9.350;2024-01-16T06:45:33;2.20;99.90
14670;DHT22;7423;48.722;9.350;2024-01-16T06:48:00;2.30;99.90
14670;DHT22;7423;48.722;9.350;2024-01-16T06:50:27;2.30;99.90
14670;DHT22;7423;48.722;9.350;2024-01-16T06:52:56;2.20;99.90
14670;DHT22;7423;48.722;9.350;2024-01-16T06:55:23;2.20;99.90
14670;DHT22;7423;48.722;9.350;2024-01-16T06:57:50;2.10;99.90
14670;DHT22;7423;48.722;9.350;2024-01-16T07:00:19;2.10;99.90
14670;DHT22;7423;48.722;9.350;2024-01-16T07:02:47;2.10;99.90
14670;DHT22;7423;48.722;9.350;2024-01-16T07:05:14;2.10;99.90
14670;DHT22;7423;48.722;9.350;2024-01-16T07:07:42;2.00;99.90
14670;DHT22;7423;48.722;9.350;2024-01-16T07:10:10;2.10;99.90
14670;DHT22;7423;48.722;9.350;2024-01-16T07:12:45;2.10;99.90
14670;DHT22;7423;48.722;9.350;2024-01-16T07:15:12;2.10;99.90
14670;DHT22;7423;48.722;9.350;2024-01-16T07:17:40;2.20;99.90
14670;DHT22;7423;48.722;9.350;2024-01-16T07:20:07;2.20;99.90
14670;DHT22;7423;48.722;9.350;2024-01-16T07:22:36;2.10;99.90
14670;DHT22;7423;48.722;9.350;2024-01-16T07:25:04;2.20;99.90
14670;DHT22;7423;48.722;9.350;2024-01-16T07:27:31;2.10;99.90
14670;DHT22;7423;48.722;9.350;2024-01-16T07:29:58;2.10;99.90
14670;DHT22;7423;48.722;9.350;2024-01-16T07:32:24;2.10;99.90
14670;DHT22;7423;48.722;9.350;2024-01-16T07:34:54;2.10;99.90
14670;DHT22;7423;48.722;9.350;2024-01-16T07:37:21;2.10;99.90
14670;DHT22;7423;48.722;9.350;2024-01-16T07:39:48;2.00;99.90
14670;DHT22;7423;48.722;9.350;2024-01-16T07:42:15;2.00;99.90
14670;DHT22;7423;48.722;9.350;2024-01-16T07:44:42;2.00;99.90
14670;DHT22;7423;48.722;9.350;2024-01-16T07:47:09;2.10;99.90
14670;DHT22;7423;48.722;9.350;2024-01-16T07:49:36;2.10;99.90
14670;DHT22;7423;48.722;9.350;2024-01-16T07:52:03;2.10;99.90
14670;DHT22;7423;48.722;9.350;2024-01-16T07:54:30;2.10;99.90
14670;DHT22;7423;48.722;9.350;2024-01-16T07:56:57;1.60;99.90
14670;DHT22;7423;48.722;9.350;2024-01-16T07:59:26;2.20;99.90
14670;DHT22;7423;48.722;9.350;2024-01-16T08:01:55;2.20;99.90
14670;DHT22;7423;48.722;9.350;2024-01-16T08:04:21;2.20;99.90
14670;DHT22;7423;48.722;9.350;2024-01-16T08:06:48;2.30;99.90
14670;DHT22;7423;48.722;9.350;2024-01-16T08:09:16;2.30;99.90
14670;DHT22;7423;48.722;9.350;2024-01-16T08:11:44;2.30;99.90
14670;DHT22;7423;48.722;9.350;2024-01-16T08:14:10;2.30;99.90
14670;DHT22;7423;48.722;9.350;2024-01-16T08:16:37;2.30;99.90
14670;DHT22;7423;48.722;9.350;2024-01-16T08:19:04;2.20;99.90
14670;DHT22;7423;48.722;9.350;2024-01-16T08:21:31;2.20;99.90
14670;DHT22;7423;48.722;9.350;2024-01-16T08:23:58;3.30;99.90
14670;DHT22;7423;48.722;9.350;2024-01-16T08:26:26;2.30;99.90
14670;DHT22;7423;48.722;9.350;2024-01-16T08:28:53;2.30;99.90
14670;DHT22;7423;48.722;9.350;2024-01-16T08:31:19;2.40;99.90
14670;DHT22;7423;48.722;9.350;2024-01-16T08:33:46;2.40;99.90
14670;DHT22;7423;48.722;9.350;2024-01-16T08:36:18;2.40;99.90
14670;DHT22;7423;48.722;9.350;2024-01-16T08:38:45;2.50;99.90
14670;DHT22;7423;48.722;9.350;2024-01-16T08:41:13;2.50;99.90
14670;DHT22;7423;48.722;9.350;2024-01-16T08:43:40;2.50;99.90
14670;DHT22;7423;48.722;9.350;2024-01-16T08:46:07;2.60;99.90
14670;DHT22;7423;48.722;9.350;2024-01-16T08:48:34;2.60;99.90
14670;DHT22;7423;48.722;9.350;2024-01-16T08:51:01;2.60;99.90
14670;DHT22;7423;48.722;9.350;2024-01-16T08:53:30;2.60;99.90
14670;DHT22;7423;48.722;9.350;2024-01-16T08:55:57;2.60;99.90
14670;DHT22;7423;48.722;9.350;2024-01-16T08:58:24;2.60;99.90
14670;DHT22;7423;48.722;9.350;2024-01-16T09:00:51;2.70;99.90
14670;DHT22;7423;48.722;9.350;2024-01-16T09:03:18;2.70;99.90
14670;DHT22;7423;48.722;9.350;2024-01-16T09:05:45;2.70;99.90
14670;DHT22;7423;48.722;9.350;2024-01-16T09:08:12;2.70;99.90
14670;DHT22;7423;48.722;9.350;2024-01-16T09:10:40;2.80;99.90
14670;DHT22;7423;48.722;9.350;2024-01-16T09:13:07;2.80;99.90
14670;DHT22;7423;48.722;9.350;2024-01-16T09:15:34;2.80;99.90
14670;DHT22;7423;48.722;9.350;2024-01-16T09:18:01;2.80;99.90
14670;DHT22;7423;48.722;9.350;2024-01-16T09:20:28;2.90;99.90
14670;DHT22;7423;48.722;9.350;2024-01-16T09:22:55;2.90;99.90
14670;DHT22;7423;48.722;9.350;2024-01-16T09:25:22;2.90;99.90
14670;DHT22;7423;48.722;9.350;2024-01-16T09:27:54;3.00;99.90
14670;DHT22;7423;48.722;9.350;2024-01-16T09:30:21;3.00;99.90
14670;DHT22;7423;48.722;9.350;2024-01-16T09:32:49;3.00;99.90
14670;DHT22;7423;48.722;9.350;2024-01-16T09:35:16;3.00;99.90
14670;DHT22;7423;48.722;9.350;2024-01-16T09:37:43;3.00;99.90
14670;DHT22;7423;48.722;9.350;2024-01-16T09:40:11;3.00;99.90
14670;DHT22;7423;48.722;9.350;2024-01-16T09:42:37;3.10;99.80
14670;DHT22;7423;48.722;9.350;2024-01-16T09:45:05;3.20;99.70
14670;DHT22;7423;48.722;9.350;2024-01-16T09:47:32;3.20;99.90
14670;DHT22;7423;48.722;9.350;2024-01-16T09:50:02;3.20;99.90
14670;DHT22;7423;48.722;9.350;2024-01-16T09:52:30;3.30;99.80
14670;DHT22;7423;48.722;9.350;2024-01-16T09:54:57;3.30;99.70
14670;DHT22;7423;48.722;9.350;2024-01-16T09:57:27;3.30;99.80
14670;DHT22;7423;48.722;9.350;2024-01-16T09:59:56;3.30;99.80
14670;DHT22;7423;48.722;9.350;2024-01-16T10:02:24;3.40;99.80
14670;DHT22;7423;48.722;9.350;2024-01-16T10:04:51;3.40;99.80
14670;DHT22;7423;48.722;9.350;2024-01-16T10:07:18;3.50;99.70
14670;DHT22;7423;48.722;9.350;2024-01-16T10:09:52;3.50;99.90
14670;DHT22;7423;48.722;9.350;2024-01-16T10:12:19;3.50;99.90
14670;DHT22;7423;48.722;9.350;2024-01-16T10:14:46;3.60;99.90
14670;DHT22;7423;48.722;9.350;2024-01-16T10:17:15;3.60;99.90
14670;DHT22;7423;48.722;9.350;2024-01-16T10:19:52;3.60;99.90
14670;DHT22;7423;48.722;9.350;2024-01-16T10:22:22;3.60;99.70
14670;DHT22;7423;48.722;9.350;2024-01-16T10:25:13;3.70;99.80
14670;DHT22;7423;48.722;9.350;2024-01-16T10:27:44;3.70;99.80
14670;DHT22;7423;48.722;9.350;2024-01-16T10:30:11;3.80;99.80
14670;DHT22;7423;48.722;9.350;2024-01-16T10:32:40;3.90;99.80
14670;DHT22;7423;48.722;9.350;2024-01-16T10:35:10;3.90;99.70
14670;DHT22;7423;48.722;9.350;2024-01-16T10:37:53;4.00;99.60
14670;DHT22;7423;48.722;9.350;2024-01-16T10:40:24;4.00;99.70
14670;DHT22;7423;48.722;9.350;2024-01-16T10:42:58;4.00;99.70
14670;DHT22;7423;48.722;9.350;2024-01-16T10:45:27;4.00;99.60
14670;DHT22;7423;48.722;9.350;2024-01-16T10:48:05;4.10;99.70
14670;DHT22;7423;48.722;9.350;2024-01-16T10:50:35;4.20;99.60
14670;DHT22;7423;48.722;9.350;2024-01-16T10:53:04;4.20;99.50
14670;DHT22;7423;48.722;9.350;2024-01-16T10:55:51;4.20;99.60
14670;DHT22;7423;48.722;9.350;2024-01-16T10:58:22;4.30;99.50
14670;DHT22;7423;48.722;9.350;2024-01-16T11:00:52;4.30;99.20
14670;DHT22;7423;48.722;9.350;2024-01-16T11:03:38;4.20;98.80
14670;DHT22;7423;48.722;9.350;2024-01-16T11:06:17;4.20;98.60
14670;DHT22;7423;48.722;9.350;2024-01-16T11:08:49;4.20;98.60
14670;DHT22;7423;48.722;9.350;2024-01-16T11:11:16;4.20;98.40
14670;DHT22;7423;48.722;9.350;2024-01-16T11:13:45;4.20;98.60
14670;DHT22;7423;48.722;9.350;2024-01-16T11:16:13;4.20;98.60
14670;DHT22;7423;48.722;9.350;2024-01-16T11:18:40;4.30;98.40
14670;DHT22;7423;48.722;9.350;2024-01-16T11:21:10;4.40;98.60
14670;DHT22;7423;48.722;9.350;2024-01-16T11:23:44;4.40;98.70
14670;DHT22;7423;48.722;9.350;2024-01-16T11:26:37;4.50;98.90
14670;DHT22;7423;48.722;9.350;2024-01-16T11:31:56;4.60;98.70
14670;DHT22;7423;48.722;9.350;2024-01-16T11:37:15;4.70;98.50
14670;DHT22;7423;48.722;9.350;2024-01-16T11:39:42;4.80;98.50
14670;DHT22;7423;48.722;9.350;2024-01-16T11:42:09;4.80;98.60
14670;DHT22;7423;48.722;9.350;2024-01-16T11:44:46;4.80;98.40
14670;DHT22;7423;48.722;9.350;2024-01-16T11:47:21;4.80;98.40
14670;DHT22;7423;48.722;9.350;2024-01-16T11:50:27;4.80;98.30
14670;DHT22;7423;48.722;9.350;2024-01-16T11:52:56;4.80;98.30
14670;DHT22;7423;48.722;9.350;2024-01-16T11:55:31;4.90;98.10
14670;DHT22;7423;48.722;9.350;2024-01-16T12:01:35;4.90;98.10
14670;DHT22;7423;48.722;9.350;2024-01-16T12:04:06;5.00;97.90
14670;DHT22;7423;48.722;9.350;2024-01-16T12:06:35;5.00;97.90
14670;DHT22;7423;48.722;9.350;2024-01-16T12:09:25;5.10;97.80
14670;DHT22;7423;48.722;9.350;2024-01-16T12:12:02;5.10;97.60
14670;DHT22;7423;48.722;9.350;2024-01-16T12:14:30;5.10;97.70
14670;DHT22;7423;48.722;9.350;2024-01-16T12:17:13;5.10;97.60
14670;DHT22;7423;48.722;9.350;2024-01-16T12:19:41;5.00;97.30
14670;DHT22;7423;48.722;9.350;2024-01-16T12:22:12;4.80;97.70
14670;DHT22;7423;48.722;9.350;2024-01-16T12:24:40;4.90;97.50
14670;DHT22;7423;48.722;9.350;2024-01-16T12:27:08;5.00;97.70
14670;DHT22;7423;48.722;9.350;2024-01-16T12:29:36;5.20;97.60
14670;DHT22;7423;48.722;9.350;2024-01-16T12:32:10;5.20;97.60
14670;DHT22;7423;48.722;9.350;2024-01-16T12:34:47;5.20;97.30
14670;DHT22;7423;48.722;9.350;2024-01-16T12:37:15;5.20;97.50
14670;DHT22;7423;48.722;9.350;2024-01-16T12:39:43;5.10;97.40
14670;DHT22;7423;48.722;9.350;2024-01-16T12:42:10;5.20;97.30
14670;DHT22;7423;48.722;9.350;2024-01-16T12:44:39;5.30;97.00
14670;DHT22;7423;48.722;9.350;2024-01-16T12:47:06;5.30;96.80
14670;DHT22;7423;48.722;9.350;2024-01-16T12:49:33;5.40;97.10
14670;DHT22;7423;48.722;9.350;2024-01-16T12:52:19;5.40;97.20
14670;DHT22;7423;48.722;9.350;2024-01-16T12:54:59;5.50;97.30
14670;DHT22;7423;48.722;9.350;2024-01-16T12:57:27;5.50;97.20
14670;DHT22;7423;48.722;9.350;2024-01-16T12:59:54;5.50;97.00
14670;DHT22;7423;48.722;9.350;2024-01-16T13:02:24;5.60;96.90
14670;DHT22;7423;48.722;9.350;2024-01-16T13:04:59;5.70;96.40
14670;DHT22;7423;48.722;9.350;2024-01-16T13:07:29;5.70;96.50
14670;DHT22;7423;48.722;9.350;2024-01-16T13:10:07;5.70;96.70
14670;DHT22;7423;48.722;9.350;2024-01-16T13:12:35;5.70;96.70
14670;DHT22;7423;48.722;9.350;2024-01-16T13:15:03;5.70;96.70
14670;DHT22;7423;48.722;9.350;2024-01-16T13:17:34;5.80;96.60
14670;DHT22;7423;48.722;9.350;2024-01-16T13:20:01;5.70;96.40
14670;DHT22;7423;48.722;9.350;2024-01-16T13:22:30;5.80;96.40
14670;DHT22;7423;48.722;9.350;2024-01-16T13:25:10;5.80;96.10
14670;DHT22;7423;48.722;9.350;2024-01-16T13:27:38;5.80;96.00
14670;DHT22;7423;48.722;9.350;2024-01-16T13:30:05;5.90;96.20
14670;DHT22;7423;48.722;9.350;2024-01-16T13:32:34;5.90;96.00
14670;DHT22;7423;48.722;9.350;2024-01-16T13:35:04;5.90;96.20
14670;DHT22;7423;48.722;9.350;2024-01-16T13:37:35;5.90;96.20
14670;DHT22;7423;48.722;9.350;2024-01-16T13:40:06;5.90;95.60
14670;DHT22;7423;48.722;9.350;2024-01-16T13:42:42;6.00;95.60
14670;DHT22;7423;48.722;9.350;2024-01-16T13:45:09;6.00;94.50
14670;DHT22;7423;48.722;9.350;2024-01-16T13:47:37;6.10;95.20
14670;DHT22;7423;48.722;9.350;2024-01-16T13:50:07;6.10;95.60
14670;DHT22;7423;48.722;9.350;2024-01-16T13:52:35;6.10;95.10
14670;DHT22;7423;48.722;9.350;2024-01-16T13:55:02;6.10;95.00
14670;DHT22;7423;48.722;9.350;2024-01-16T13:57:32;6.10;95.30
14670;DHT22;7423;48.722;9.350;2024-01-16T14:00:06;6.10;94.70
14670;DHT22;7423;48.722;9.350;2024-01-16T14:02:34;6.20;93.90
14670;DHT22;7423;48.722;9.350;2024-01-16T14:05:04;6.10;94.80
14670;DHT22;7423;48.722;9.350;2024-01-16T14:07:32;6.10;95.10
14670;DHT22;7423;48.722;9.350;2024-01-16T14:09:59;6.10;95.00
14670;DHT22;7423;48.722;9.350;2024-01-16T14:12:26;6.10;95.10
14670;DHT22;7423;48.722;9.350;2024-01-16T14:14:53;6.10;94.60
14670;DHT22;7423;48.722;9.350;2024-01-16T14:17:20;6.20;94.50
14670;DHT22;7423;48.722;9.350;2024-01-16T14:19:47;6.20;94.60
14670;DHT22;7423;48.722;9.350;2024-01-16T14:22:14;6.20;94.30
14670;DHT22;7423;48.722;9.350;2024-01-16T14:24:42;6.20;94.80
14670;DHT22;7423;48.722;9.350;2024-01-16T14:27:09;6.20;95.00
14670;DHT22;7423;48.722;9.350;2024-01-16T14:29:37;6.30;95.40
14670;DHT22;7423;48.722;9.350;2024-01-16T14:32:06;6.30;94.60
14670;DHT22;7423;48.722;9.350;2024-01-16T14:34:33;6.20;94.80
14670;DHT22;7423;48.722;9.350;2024-01-16T14:37:00;6.20;94.90
14670;DHT22;7423;48.722;9.350;2024-01-16T14:39:27;6.20;94.90
14670;DHT22;7423;48.722;9.350;2024-01-16T14:41:57;6.20;95.00
14670;DHT22;7423;48.722;9.350;2024-01-16T14:44:28;6.20;94.90
14670;DHT22;7423;48.722;9.350;2024-01-16T14:46:56;6.30;94.60
14670;DHT22;7423;48.722;9.350;2024-01-16T14:49:23;6.30;94.30
14670;DHT22;7423;48.722;9.350;2024-01-16T14:51:50;6.30;94.70
14670;DHT22;7423;48.722;9.350;2024-01-16T14:54:18;6.30;94.40
14670;DHT22;7423;48.722;9.350;2024-01-16T14:56:45;6.30;94.40
14670;DHT22;7423;48.722;9.350;2024-01-16T14:59:12;6.30;94.20
14670;DHT22;7423;48.722;9.350;2024-01-16T15:01:43;6.40;93.70
14670;DHT22;7423;48.722;9.350;2024-01-16T15:04:11;6.40;94.30
14670;DHT22;7423;48.722;9.350;2024-01-16T15:06:38;6.40;93.50
14670;DHT22;7423;48.722;9.350;2024-01-16T15:09:06;6.40;93.70
14670;DHT22;7423;48.722;9.350;2024-01-16T15:11:36;6.50;93.30
14670;DHT22;7423;48.722;9.350;2024-01-16T15:14:04;6.50;93.00
14670;DHT22;7423;48.722;9.350;2024-01-16T15:16:31;6.50;93.10
14670;DHT22;7423;48.722;9.350;2024-01-16T15:18:58;6.40;93.80
14670;DHT22;7423;48.722;9.350;2024-01-16T15:21:25;6.30;94.50
14670;DHT22;7423;48.722;9.350;2024-01-16T15:23:52;6.10;94.90
14670;DHT22;7423;48.722;9.350;2024-01-16T15:26:19;6.00;95.40
14670;DHT22;7423;48.722;9.350;2024-01-16T15:28:48;5.90;95.30
14670;DHT22;7423;48.722;9.350;2024-01-16T15:31:16;5.80;95.50
14670;DHT22;7423;48.722;9.350;2024-01-16T15:33:44;5.70;95.60
14670;DHT22;7423;48.722;9.350;2024-01-16T15:36:11;5.70;95.60
14670;DHT22;7423;48.722;9.350;2024-01-16T15:38:38;5.60;95.70
14670;DHT22;7423;48.722;9.350;2024-01-16T15:41:05;5.60;95.60
14670;DHT22;7423;48.722;9.350;2024-01-16T15:43:32;5.70;95.50
14670;DHT22;7423;48.722;9.350;2024-01-16T15:45:59;5.60;95.60
14670;DHT22;7423;48.722;9.350;2024-01-16T15:48:26;5.60;95.50
14670;DHT22;7423;48.722;9.350;2024-01-16T15:51:00;5.60;95.60
14670;DHT22;7423;48.722;9.350;2024-01-16T15:53:27;5.50;95.80
14670;DHT22;7423;48.722;9.350;2024-01-16T15:55:54;5.50;95.90
14670;DHT22;7423;48.722;9.350;2024-01-16T15:58:21;5.40;96.50
14670;DHT22;7423;48.722;9.350;2024-01-16T16:00:48;5.30;96.40
14670;DHT22;7423;48.722;9.350;2024-01-16T16:03:15;5.30;96.30
14670;DHT22;7423;48.722;9.350;2024-01-16T16:05:43;5.20;96.30
14670;DHT22;7423;48.722;9.350;2024-01-16T16:08:10;5.20;96.40
14670;DHT22;7423;48.722;9.350;2024-01-16T16:10:37;5.10;96.20
14670;DHT22;7423;48.722;9.350;2024-01-16T16:13:05;5.10;96.20
14670;DHT22;7423;48.722;9.350;2024-01-16T16:15:33;5.00;96.60
14670;DHT22;7423;48.722;9.350;2024-01-16T16:18:01;5.00;96.20
14670;DHT22;7423;48.722;9.350;2024-01-16T16:20:28;5.00;96.20
14670;DHT22;7423;48.722;9.350;2024-01-16T16:22:56;5.00;96.50